| time (UTC) | temp C | wind direction | speed KPH | gust KPH | rain 1hr cm | rain 24hr cm | rain mn cm | humidity % | barometer mb |
| 20260906233623 | 23 | 161 | 9.7 | 12.9 | 0.00 | 0.00 | 0.00 | 34 | 1016.9 |
| 20260906232612 | 23 | 163 | 9.7 | 12.9 | 0.00 | 0.00 | 0.00 | 33 | 1016.9 |
| 20260906231622 | 23 | 163 | 8.0 | 17.7 | 0.00 | 0.00 | 0.00 | 33 | 1017.0 |
| 20260906230631 | 23 | 199 | 8.0 | 17.7 | 0.00 | 0.00 | 0.00 | 34 | 1017.1 |
| 20260906225616 | 23 | 183 | 12.9 | 22.5 | 0.00 | 0.00 | 0.00 | 33 | 1017.2 |
| 20260906224626 | 23 | 169 | 14.5 | 19.3 | 0.00 | 0.00 | 0.00 | 33 | 1017.4 |
| 20260906223637 | 23 | 199 | 11.3 | 17.7 | 0.00 | 0.00 | 0.00 | 32 | 1017.4 |
| 20260906222626 | 24 | 159 | 11.3 | 16.1 | 0.00 | 0.00 | 0.00 | 33 | 1017.4 |
| 20260906221620 | 24 | 181 | 12.9 | 24.1 | 0.00 | 0.00 | 0.00 | 32 | 1017.4 |
| 20260906220631 | 24 | 202 | 12.9 | 19.3 | 0.00 | 0.00 | 0.00 | 31 | 1017.6 |
| 20260906215614 | 24 | 217 | 11.3 | 27.4 | 0.00 | 0.00 | 0.00 | 31 | 1017.6 |
| 20260906214622 | 24 | 213 | 8.0 | 19.3 | 0.00 | 0.00 | 0.00 | 30 | 1017.6 |
| 20260906213616 | 24 | 192 | 11.3 | 22.5 | 0.00 | 0.00 | 0.00 | 32 | 1017.6 |
| 20260906212646 | 24 | 168 | 14.5 | 30.6 | 0.00 | 0.00 | 0.00 | 31 | 1017.7 |
| 20260906211637 | 24 | 188 | 17.7 | 29.0 | 0.00 | 0.00 | 0.00 | 32 | 1017.9 |
| 20260906210625 | 25 | 192 | 12.9 | 24.1 | 0.00 | 0.00 | 0.00 | 32 | 1017.8 |
| 20260906205649 | 25 | 157 | 11.3 | 25.7 | 0.00 | 0.00 | 0.00 | 32 | 1017.7 |
| 20260906204622 | 25 | 211 | 19.3 | 33.8 | 0.00 | 0.00 | 0.00 | 30 | 1018.0 |
| 20260906203612 | 25 | 156 | 16.1 | 27.4 | 0.00 | 0.00 | 0.00 | 30 | 1018.0 |
| 20260906202621 | 24 | 198 | 22.5 | 38.6 | 0.00 | 0.00 | 0.00 | 29 | 1018.1 |
| 20260906201615 | 25 | 174 | 20.9 | 32.2 | 0.00 | 0.00 | 0.00 | 28 | 1018.1 |
| 20260906200615 | 25 | 172 | 16.1 | 33.8 | 0.00 | 0.00 | 0.00 | 28 | 1018.4 |
| 20260906195615 | 25 | 196 | 17.7 | 32.2 | 0.00 | 0.00 | 0.00 | 28 | 1018.7 |
| 20260906194626 | 24 | 134 | 16.1 | 30.6 | 0.00 | 0.00 | 0.00 | 30 | 1018.6 |
| 20260906193619 | 24 | 172 | 14.5 | 32.2 | 0.00 | 0.00 | 0.00 | 30 | 1019.0 |
| 20260906192629 | 24 | 164 | 12.9 | 19.3 | 0.00 | 0.00 | 0.00 | 29 | 1018.8 |
| 20260906191620 | 23 | 216 | 8.0 | 22.5 | 0.00 | 0.00 | 0.00 | 30 | 1018.9 |
| 20260906190621 | 25 | 147 | 12.9 | 37.0 | 0.00 | 0.00 | 0.00 | 29 | 1019.1 |
| 20260906185643 | 24 | 202 | 14.5 | 33.8 | 0.00 | 0.00 | 0.00 | 30 | 1019.1 |
| 20260906184617 | 25 | 165 | 12.9 | 27.4 | 0.00 | 0.00 | 0.00 | 29 | 1019.2 |
| 20260906183627 | 23 | 141 | 19.3 | 38.6 | 0.00 | 0.00 | 0.00 | 29 | 1019.3 |
| 20260906182637 | 23 | 219 | 17.7 | 33.8 | 0.00 | 0.00 | 0.00 | 29 | 1019.5 |
| 20260906181647 | 23 | 150 | 20.9 | 35.4 | 0.00 | 0.00 | 0.00 | 29 | 1019.4 |
| 20260906180626 | 23 | 196 | 16.1 | 32.2 | 0.00 | 0.00 | 0.00 | 29 | 1019.6 |
| 20260906175627 | 23 | 202 | 16.1 | 27.4 | 0.00 | 0.00 | 0.00 | 31 | 1019.8 |
| 20260906174617 | 23 | 163 | 17.7 | 27.4 | 0.00 | 0.00 | 0.00 | 30 | 1020.1 |
| 20260906173628 | 23 | 186 | 17.7 | 32.2 | 0.00 | 0.00 | 0.00 | 31 | 1020.1 |
| 20260906172638 | 23 | 155 | 19.3 | 37.0 | 0.00 | 0.00 | 0.00 | 30 | 1020.3 |
| 20260906171630 | 23 | 117 | 20.9 | 30.6 | 0.00 | 0.00 | 0.00 | 28 | 1020.3 |
| 20260906170619 | 22 | 192 | 24.1 | 33.8 | 0.00 | 0.00 | 0.00 | 29 | 1020.5 |
| 20260906165621 | 22 | 198 | 19.3 | 30.6 | 0.00 | 0.00 | 0.00 | 30 | 1020.4 |
| 20260906164613 | 22 | 192 | 19.3 | 32.2 | 0.00 | 0.00 | 0.00 | 31 | 1020.5 |
| 20260906163624 | 22 | 160 | 16.1 | 29.0 | 0.00 | 0.00 | 0.00 | 31 | 1020.4 |
| 20260906162634 | 22 | 159 | 16.1 | 30.6 | 0.00 | 0.00 | 0.00 | 31 | 1020.4 |
| 20260906161622 | 22 | 163 | 17.7 | 27.4 | 0.00 | 0.00 | 0.00 | 32 | 1020.5 |
| 20260906160617 | 22 | 170 | 17.7 | 33.8 | 0.00 | 0.00 | 0.00 | 33 | 1020.5 |
| 20260906155620 | 22 | 140 | 17.7 | 27.4 | 0.00 | 0.00 | 0.00 | 33 | 1020.6 |
| 20260906154631 | 21 | 215 | 17.7 | 30.6 | 0.00 | 0.00 | 0.00 | 33 | 1020.5 |
| 20260906153622 | 21 | 163 | 17.7 | 29.0 | 0.00 | 0.00 | 0.00 | 34 | 1020.6 |
| 20260906152614 | 21 | 213 | 20.9 | 35.4 | 0.00 | 0.00 | 0.00 | 34 | 1020.7 |
| 20260906151624 | 21 | 176 | 16.1 | 24.1 | 0.00 | 0.00 | 0.00 | 34 | 1020.5 |
| 20260906150612 | 21 | 182 | 19.3 | 27.4 | 0.00 | 0.00 | 0.00 | 33 | 1020.4 |
| 20260906145614 | 20 | 194 | 12.9 | 19.3 | 0.00 | 0.00 | 0.00 | 34 | 1020.3 |
| 20260906144629 | 18 | 185 | 6.4 | 9.7 | 0.00 | 0.00 | 0.00 | 39 | 1020.3 |
| 20260906143617 | 17 | 103 | 1.6 | 4.8 | 0.00 | 0.00 | 0.00 | 39 | 1020.2 |
| 20260906142626 | 16 | 176 | 1.6 | 8.0 | 0.00 | 0.00 | 0.00 | 41 | 1020.1 |
| 20260906141616 | 16 | 206 | 4.8 | 8.0 | 0.00 | 0.00 | 0.00 | 41 | 1020.1 |
| 20260906140620 | 15 | 198 | 4.8 | 9.7 | 0.00 | 0.00 | 0.00 | 41 | 1020.1 |
| 20260906135622 | 15 | 190 | 4.8 | 8.0 | 0.00 | 0.00 | 0.00 | 40 | 1019.9 |
| 20260906134612 | 16 | 172 | 6.4 | 9.7 | 0.00 | 0.00 | 0.00 | 38 | 1020.1 |
| 20260906133640 | 16 | 188 | 1.6 | 4.8 | 0.00 | 0.00 | 0.00 | 38 | 1019.8 |
| 20260906132614 | 15 | 116 | 1.6 | 8.0 | 0.00 | 0.00 | 0.00 | 38 | 1019.7 |
| 20260906131624 | 15 | 163 | 1.6 | 6.4 | 0.00 | 0.00 | 0.00 | 40 | 1019.6 |
| 20260906130626 | 15 | 165 | 3.2 | 6.4 | 0.00 | 0.00 | 0.00 | 39 | 1019.5 |
| 20260906125629 | 15 | 157 | 8.0 | 11.3 | 0.00 | 0.00 | 0.00 | 38 | 1019.7 |
| 20260906124624 | 15 | 181 | 6.4 | 9.7 | 0.00 | 0.00 | 0.00 | 37 | 1019.7 |
| 20260906123635 | 15 | 173 | 1.6 | 3.2 | 0.00 | 0.00 | 0.00 | 38 | 1019.7 |
| 20260906122624 | 15 | 155 | 0.0 | 1.6 | 0.00 | 0.00 | 0.00 | 38 | 1019.7 |
| 20260906121616 | 15 | 169 | 0.0 | 4.8 | 0.00 | 0.00 | 0.00 | 36 | 1019.5 |
| 20260906120631 | 15 | 165 | 4.8 | 6.4 | 0.00 | 0.00 | 0.00 | 36 | 1019.6 |
| 20260906115633 | 16 | 162 | 3.2 | 6.4 | 0.00 | 0.00 | 0.00 | 36 | 1019.6 |
| 20260906114623 | 16 | 84 | 1.6 | 6.4 | 0.00 | 0.00 | 0.00 | 35 | 1019.6 |
| 20260906113612 | 16 | 154 | 3.2 | 6.4 | 0.00 | 0.00 | 0.00 | 35 | 1019.6 |
| 20260906112626 | 16 | 165 | 4.8 | 9.7 | 0.00 | 0.00 | 0.00 | 35 | 1019.6 |
| 20260906111617 | 16 | 178 | 8.0 | 9.7 | 0.00 | 0.00 | 0.00 | 34 | 1019.6 |
| 20260906110627 | 16 | 166 | 6.4 | 9.7 | 0.00 | 0.00 | 0.00 | 35 | 1019.6 |
| 20260906105628 | 16 | 186 | 4.8 | 8.0 | 0.00 | 0.00 | 0.00 | 34 | 1019.7 |
| 20260906104622 | 16 | 172 | 3.2 | 9.7 | 0.00 | 0.00 | 0.00 | 34 | 1019.5 |
| 20260906103633 | 16 | 132 | 3.2 | 8.0 | 0.00 | 0.00 | 0.00 | 33 | 1019.5 |
| 20260906102622 | 16 | 163 | 3.2 | 11.3 | 0.00 | 0.00 | 0.00 | 33 | 1019.5 |
| 20260906101631 | 16 | 121 | 3.2 | 11.3 | 0.00 | 0.00 | 0.00 | 33 | 1019.4 |
| 20260906100625 | 16 | 109 | 4.8 | 9.7 | 0.00 | 0.00 | 0.00 | 33 | 1019.5 |
| 20260906095628 | 16 | 114 | 4.8 | 9.7 | 0.00 | 0.00 | 0.00 | 32 | 1019.3 |
| 20260906094618 | 16 | 153 | 1.6 | 6.4 | 0.00 | 0.00 | 0.00 | 33 | 1019.2 |
| 20260906093648 | 17 | 131 | 1.6 | 4.8 | 0.00 | 0.00 | 0.00 | 32 | 1019.3 |
| 20260906092620 | 17 | 180 | 1.6 | 6.4 | 0.00 | 0.00 | 0.00 | 32 | 1019.3 |
| 20260906091631 | 17 | 110 | 1.6 | 8.0 | 0.00 | 0.00 | 0.00 | 31 | 1019.3 |
| 20260906090620 | 17 | 157 | 1.6 | 8.0 | 0.00 | 0.00 | 0.00 | 31 | 1019.1 |
| 20260906085623 | 17 | 157 | 1.6 | 3.2 | 0.00 | 0.00 | 0.00 | 31 | 1019.1 |
| 20260906084637 | 17 | 146 | 0.0 | 4.8 | 0.00 | 0.00 | 0.00 | 30 | 1019.0 |
| 20260906083625 | 17 | 181 | 4.8 | 8.0 | 0.00 | 0.00 | 0.00 | 30 | 1019.0 |
| 20260906082616 | 18 | 158 | 3.2 | 6.4 | 0.00 | 0.00 | 0.00 | 29 | 1019.0 |
| 20260906081626 | 18 | 138 | 4.8 | 8.0 | 0.00 | 0.00 | 0.00 | 28 | 1019.1 |
| 20260906080630 | 18 | 157 | 6.4 | 11.3 | 0.00 | 0.00 | 0.00 | 28 | 1019.1 |
| 20260906075613 | 18 | 142 | 6.4 | 12.9 | 0.00 | 0.00 | 0.00 | 28 | 1019.2 |
| 20260906074624 | 18 | 167 | 6.4 | 14.5 | 0.00 | 0.00 | 0.00 | 29 | 1019.1 |
| 20260906073619 | 18 | 161 | 4.8 | 14.5 | 0.00 | 0.00 | 0.00 | 29 | 1019.1 |
| 20260906072628 | 18 | 147 | 3.2 | 9.7 | 0.00 | 0.00 | 0.00 | 28 | 1019.2 |
| 20260906071619 | 18 | 123 | 4.8 | 9.7 | 0.00 | 0.00 | 0.00 | 28 | 1019.1 |
| 20260906070621 | 18 | 155 | 4.8 | 11.3 | 0.00 | 0.00 | 0.00 | 28 | 1019.1 |
| 20260906065627 | 18 | 149 | 8.0 | 11.3 | 0.00 | 0.00 | 0.00 | 28 | 1019.1 |
| 20260906064617 | 18 | 178 | 8.0 | 12.9 | 0.00 | 0.00 | 0.00 | 28 | 1019.1 |
| 20260906063627 | 18 | 158 | 6.4 | 12.9 | 0.00 | 0.00 | 0.00 | 28 | 1019.0 |
| 20260906062618 | 18 | 175 | 6.4 | 9.7 | 0.00 | 0.00 | 0.00 | 28 | 1019.0 |
| 20260906061631 | 18 | 180 | 4.8 | 11.3 | 0.00 | 0.00 | 0.00 | 28 | 1019.0 |
| 20260906060627 | 20 | 193 | 4.8 | 14.5 | 0.00 | 0.00 | 0.00 | 27 | 1018.9 |
| 20260906055647 | 19 | 168 | 4.8 | 11.3 | 0.00 | 0.00 | 0.00 | 27 | 1018.8 |
| 20260906054617 | 19 | 182 | 6.4 | 12.9 | 0.00 | 0.00 | 0.00 | 28 | 1019.0 |
| 20260906053649 | 19 | 159 | 3.2 | 16.1 | 0.00 | 0.00 | 0.00 | 28 | 1019.0 |
| 20260906052623 | 18 | 179 | 6.4 | 11.3 | 0.00 | 0.00 | 0.00 | 29 | 1018.9 |
| 20260906051614 | 18 | 109 | 6.4 | 9.7 | 0.00 | 0.00 | 0.00 | 30 | 1018.9 |
| 20260906050625 | 18 | 187 | 3.2 | 9.7 | 0.00 | 0.00 | 0.00 | 29 | 1019.0 |
| 20260906045612 | 18 | 144 | 1.6 | 8.0 | 0.00 | 0.00 | 0.00 | 29 | 1019.0 |
| 20260906044623 | 18 | 121 | 1.6 | 6.4 | 0.00 | 0.00 | 0.00 | 30 | 1019.0 |
| 20260906043614 | 18 | 138 | 1.6 | 4.8 | 0.00 | 0.00 | 0.00 | 30 | 1019.0 |
| 20260906042625 | 18 | 164 | 1.6 | 8.0 | 0.00 | 0.00 | 0.00 | 31 | 1019.0 |
| 20260906041616 | 18 | 288 | 0.0 | 3.2 | 0.00 | 0.00 | 0.00 | 34 | 1019.0 |
| 20260906040631 | 18 | 80 | 0.0 | 3.2 | 0.00 | 0.00 | 0.00 | 30 | 1018.9 |
| 20260906035614 | 18 | 47 | 1.6 | 4.8 | 0.00 | 0.00 | 0.00 | 31 | 1019.0 |
| 20260906034645 | 17 | 18 | 3.2 | 8.0 | 0.00 | 0.00 | 0.00 | 33 | 1018.9 |
| 20260906033615 | 18 | 360 | 4.8 | 6.4 | 0.00 | 0.00 | 0.00 | 31 | 1018.8 |
| 20260906032631 | 18 | 9 | 4.8 | 8.0 | 0.00 | 0.00 | 0.00 | 33 | 1018.7 |
| 20260906031621 | 18 | 49 | 3.2 | 8.0 | 0.00 | 0.00 | 0.00 | 30 | 1018.7 |
| 20260906030633 | 19 | 13 | 4.8 | 9.7 | 0.00 | 0.00 | 0.00 | 31 | 1018.6 |
| 20260906025615 | 19 | 63 | 3.2 | 8.0 | 0.00 | 0.00 | 0.00 | 29 | 1018.6 |
| 20260906024630 | 19 | 42 | 4.8 | 8.0 | 0.00 | 0.00 | 0.00 | 28 | 1018.4 |
| 20260906023642 | 20 | 13 | 3.2 | 4.8 | 0.00 | 0.00 | 0.00 | 28 | 1018.3 |
| 20260906022612 | 20 | 38 | 6.4 | 8.0 | 0.00 | 0.00 | 0.00 | 29 | 1018.2 |
| 20260906021623 | 20 | 44 | 4.8 | 6.4 | 0.00 | 0.00 | 0.00 | 28 | 1018.3 |
| 20260906020627 | 21 | 32 | 1.6 | 4.8 | 0.00 | 0.00 | 0.00 | 28 | 1018.3 |
| 20260906015628 | 22 | 360 | 3.2 | 4.8 | 0.00 | 0.00 | 0.00 | 25 | 1018.2 |
| 20260906014618 | 23 | 113 | 1.6 | 3.2 | 0.00 | 0.00 | 0.00 | 23 | 1018.3 |
| 20260906013627 | 23 | 213 | 0.0 | 4.8 | 0.00 | 0.00 | 0.00 | 21 | 1018.4 |
| 20260906012623 | 23 | 224 | 3.2 | 4.8 | 0.00 | 0.00 | 0.00 | 21 | 1018.5 |
| 20260906011613 | 23 | 209 | 1.6 | 4.8 | 0.00 | 0.00 | 0.00 | 21 | 1018.7 |
| 20260906005620 | 24 | 229 | 3.2 | 9.7 | 0.00 | 0.00 | 0.00 | 21 | 1018.8 |
| 20260906004650 | 24 | 165 | 4.8 | 16.1 | 0.00 | 0.00 | 0.00 | 20 | 1018.8 |
| 20260906003623 | 24 | 181 | 8.0 | 11.3 | 0.00 | 0.00 | 0.00 | 21 | 1018.9 |
| 20260906002652 | 25 | 188 | 9.7 | 12.9 | 0.00 | 0.00 | 0.00 | 20 | 1018.9 |
| 20260906001621 | 25 | 193 | 8.0 | 14.5 | 0.00 | 0.00 | 0.00 | 20 | 1018.8 |
| 20260906000631 | 26 | 76 | 1.6 | 16.1 | 0.00 | 0.00 | 0.00 | 20 | 1019.0 |
| 20260905235639 | 26 | 93 | 9.7 | 22.5 | 0.00 | 0.00 | 0.00 | 19 | 1019.0 |
| 20260905234627 | 26 | 202 | 6.4 | 22.5 | 0.00 | 0.00 | 0.00 | 19 | 1018.9 |